This is the latest recevied weather packets stored in our database for station/object HB9Y1. If no packets are shown the sender has not sent any weather packets the latest 10 day(s).
| Time | Temp. | Humidity | Pressure | Rain* | Wind** | Luminosity | Snow |
|---|---|---|---|---|---|---|---|
| 1777281260 | 12.78° C | 55% | 1018.5 hPa | 0 mm | - | 563 W/m² | - |
| 1777280668 | 12.78° C | 54% | 1018.5 hPa | 0 mm | - | 531 W/m² | - |
| 1777280060 | 12.78° C | 56% | 1018.6 hPa | 0 mm | - | 478 W/m² | - |
| 1777278857 | 12.78° C | 60% | 1018.5 hPa | 0 mm | - | 456 W/m² | - |
| 1777277065 | 11.67° C | 61% | 1018.5 hPa | 0 mm | - | 386 W/m² | - |
| 1777272860 | 11.11° C | 55% | 1018.9 hPa | 0 mm | - | 199 W/m² | - |
| 1777272265 | 10° C | 58% | 1018.6 hPa | 0 mm | - | 176 W/m² | - |
| 1777269868 | 6.11° C | 72% | 1018.9 hPa | 0 mm | - | 36 W/m² | - |
| 1777267465 | 5.56° C | 71% | 1018.8 hPa | 0 mm | - | 24 W/m² | - |
| 1777266860 | 5.56° C | 72% | 1018.5 hPa | 0 mm | - | 21 W/m² | - |
| 1777266268 | 6.11° C | 72% | 1018.9 hPa | 0 mm | - | 18 W/m² | - |
| 1777263260 | 5.56° C | 71% | 1018.5 hPa | 0 mm | - | 0 W/m² | - |
| 1777258459 | 6.11° C | 70% | 1018.9 hPa | 0 mm | - | 0 W/m² | - |
| 1777254857 | 6.67° C | 69% | 1018.9 hPa | 0 mm | - | 0 W/m² | - |
| 1777253067 | 6.67° C | 69% | 1019.2 hPa | 0 mm | - | 0 W/m² | - |
| 1777252479 | 6.67° C | 69% | 1019.1 hPa | 0 mm | - | 0 W/m² | - |
| 1777250057 | 6.67° C | 69% | 1019.3 hPa | 0 mm | - | 0 W/m² | - |
| 1777241659 | 7.78° C | 68% | 1019.3 hPa | 0 mm | - | 0 W/m² | - |
| 1777241067 | 7.78° C | 68% | 1019.3 hPa | 0 mm | - | 0 W/m² | - |
| 1777237467 | 7.78° C | 67% | 1019.3 hPa | 0 mm | - | 0 W/m² | - |
| 1777232667 | 7.78° C | 68% | 1019.3 hPa | 0 mm | - | 0 W/m² | - |
| 1777232059 | 8.33° C | 67% | 1019.3 hPa | 0 mm | - | 0 W/m² | - |
| 1777224285 | 12.78° C | 56% | 1018.1 hPa | 0 mm | - | 286 W/m² | - |
| 1777221256 | 13.89° C | 53% | 1017.7 hPa | 0 mm | - | 460 W/m² | - |
| 1777211656 | 17.78° C | 39% | 1017.3 hPa | 0 mm | - | 674 W/m² | - |
* Rain latest hour (hover to see other rain measurements)
** Current wind speed in m/s (hover to see current wind gust speed)